createdAt,value
2023-04-14T00:00:43.073Z,7.50
2023-04-14T00:03:15.206Z,7.44
2023-04-14T00:05:47.498Z,7.45
2023-04-14T00:08:19.525Z,7.43
2023-04-14T00:10:51.649Z,7.38
2023-04-14T00:13:23.753Z,7.37
2023-04-14T00:15:56.429Z,7.36
2023-04-14T00:18:28.734Z,7.32
2023-04-14T00:21:02.572Z,7.34
2023-04-14T00:23:34.616Z,7.31
2023-04-14T00:26:06.677Z,7.29
2023-04-14T00:28:38.700Z,7.26
2023-04-14T00:34:46.405Z,7.20
2023-04-14T00:37:18.547Z,7.19
2023-04-14T00:39:50.604Z,7.18
2023-04-14T00:42:22.649Z,7.19
2023-04-14T00:44:54.763Z,7.21
2023-04-14T00:47:27.566Z,7.20
2023-04-14T00:49:59.676Z,7.22
2023-04-14T00:52:32.860Z,7.22
2023-04-14T00:55:06.826Z,7.20
2023-04-14T00:57:40.146Z,7.21
2023-04-14T01:00:14.022Z,7.23
2023-04-14T01:02:46.551Z,7.23
2023-04-14T01:05:18.869Z,7.21
2023-04-14T01:07:51.402Z,7.20
2023-04-14T01:10:31.042Z,7.16
2023-04-14T01:13:41.396Z,7.13
2023-04-14T01:16:37.709Z,7.16
2023-04-14T01:19:47.617Z,7.14
2023-04-14T01:22:22.940Z,7.13
2023-04-14T01:25:31.503Z,7.14
2023-04-14T01:28:25.454Z,7.13
2023-04-14T01:31:24.777Z,7.08
2023-04-14T01:34:22.910Z,7.06
2023-04-14T01:37:01.590Z,7.04
2023-04-14T01:39:41.996Z,7.00
2023-04-14T01:42:20.870Z,7.00
2023-04-14T01:45:06.422Z,6.99
2023-04-14T01:47:39.048Z,6.97
2023-04-14T01:50:12.700Z,6.97
2023-04-14T01:52:51.687Z,6.94
2023-04-14T01:55:26.976Z,6.89
2023-04-14T01:57:59.602Z,6.88
2023-04-14T02:00:34.074Z,6.82
2023-04-14T02:03:07.227Z,6.83
2023-04-14T02:05:40.711Z,6.82
2023-04-14T02:08:15.964Z,6.83
2023-04-14T02:10:52.914Z,6.79
2023-04-14T02:13:26.050Z,6.77
2023-04-14T02:16:00.179Z,6.74
2023-04-14T02:18:33.611Z,6.72
2023-04-14T02:21:06.194Z,6.71
2023-04-14T02:23:38.473Z,6.67
2023-04-14T02:26:20.132Z,6.63
2023-04-14T02:29:03.131Z,6.58
2023-04-14T02:31:40.485Z,6.58
2023-04-14T02:34:14.653Z,6.59
2023-04-14T02:36:53.069Z,6.52
2023-04-14T02:39:33.765Z,6.50
2023-04-14T02:42:14.973Z,6.47
2023-04-14T02:44:59.102Z,6.47
2023-04-14T02:47:36.240Z,6.46
2023-04-14T02:50:13.211Z,6.46
2023-04-14T02:52:51.448Z,6.45
2023-04-14T02:55:24.778Z,6.46
2023-04-14T02:57:58.605Z,6.43
2023-04-14T03:00:31.297Z,6.44
2023-04-14T03:03:05.227Z,6.45
2023-04-14T03:05:39.656Z,6.46
2023-04-14T03:08:12.786Z,6.46
2023-04-14T03:10:48.459Z,6.48
2023-04-14T03:13:24.930Z,6.45
2023-04-14T03:15:58.678Z,6.43
2023-04-14T03:18:32.552Z,6.44
2023-04-14T03:21:06.394Z,6.35
2023-04-14T03:23:39.518Z,6.31
2023-04-14T03:26:40.964Z,6.31
2023-04-14T03:29:15.419Z,6.27
2023-04-14T03:31:48.138Z,6.27
2023-04-14T03:34:21.269Z,6.24
2023-04-14T03:36:54.832Z,6.20
2023-04-14T03:39:34.593Z,6.16
2023-04-14T03:42:09.073Z,6.14
2023-04-14T03:44:50.081Z,6.15
2023-04-14T03:47:24.621Z,6.16
2023-04-14T03:50:01.412Z,6.13
2023-04-14T03:52:36.148Z,6.14
2023-04-14T03:55:12.735Z,6.13
2023-04-14T03:57:47.369Z,6.09
2023-04-14T04:00:20.792Z,6.07
2023-04-14T04:02:54.841Z,6.04
2023-04-14T04:05:27.971Z,6.05
2023-04-14T04:08:03.754Z,6.03
2023-04-14T04:10:37.134Z,6.02
2023-04-14T04:13:19.885Z,6.00
2023-04-14T04:15:52.508Z,5.99
2023-04-14T04:18:27.456Z,5.99
2023-04-14T04:21:00.278Z,5.98
2023-04-14T04:23:34.451Z,5.95
2023-04-14T04:26:07.370Z,5.91
2023-04-14T04:28:41.234Z,5.91
2023-04-14T04:31:14.719Z,5.93
2023-04-14T04:33:47.598Z,5.92
2023-04-14T04:36:20.305Z,5.91
2023-04-14T04:38:52.438Z,5.88
2023-04-14T04:41:30.540Z,5.87
2023-04-14T04:44:02.776Z,5.83
2023-04-14T04:46:55.033Z,5.83
2023-04-14T04:49:27.737Z,5.79
2023-04-14T04:52:00.042Z,5.76
2023-04-14T04:54:32.162Z,5.76
2023-04-14T04:57:04.311Z,5.74
2023-04-14T04:59:38.095Z,5.77
2023-04-14T05:02:10.795Z,5.76
2023-04-14T05:04:43.662Z,5.75
2023-04-14T05:07:16.075Z,5.77
2023-04-14T05:09:48.353Z,5.76
2023-04-14T05:12:20.470Z,5.78
2023-04-14T05:14:52.516Z,5.78
2023-04-14T05:17:24.567Z,5.82
2023-04-14T05:19:57.772Z,5.80
2023-04-14T05:22:33.231Z,5.78
2023-04-14T05:25:06.013Z,5.74
2023-04-14T05:27:38.069Z,5.73
2023-04-14T05:30:11.083Z,5.73
2023-04-14T05:32:43.149Z,5.70
2023-04-14T05:35:16.314Z,5.70
2023-04-14T05:37:48.368Z,5.73
2023-04-14T05:40:22.398Z,5.74
2023-04-14T05:42:56.952Z,5.77
2023-04-14T05:45:29.164Z,5.81
2023-04-14T05:48:01.617Z,5.86
2023-04-14T05:50:35.066Z,5.93
2023-04-14T05:53:07.797Z,6.02
2023-04-14T05:55:41.405Z,6.09
2023-04-14T05:58:13.538Z,6.17
2023-04-14T06:00:45.805Z,6.27
2023-04-14T06:03:18.090Z,6.31
2023-04-14T06:05:50.956Z,6.39
2023-04-14T06:08:25.600Z,6.49
2023-04-14T06:10:57.889Z,6.57
2023-04-14T06:13:31.963Z,6.64
2023-04-14T06:16:05.559Z,6.73
2023-04-14T06:18:37.643Z,6.81
2023-04-14T06:21:10.087Z,6.92
2023-04-14T06:23:42.261Z,7.02
2023-04-14T06:26:14.693Z,7.08
2023-04-14T06:28:47.295Z,7.17
2023-04-14T06:31:19.548Z,7.26
2023-04-14T06:33:53.207Z,7.34
2023-04-14T06:36:25.269Z,7.42
2023-04-14T06:38:58.617Z,7.51
2023-04-14T06:41:30.947Z,7.59
2023-04-14T06:44:03.076Z,7.64
2023-04-14T06:46:36.584Z,7.73
2023-04-14T06:49:08.729Z,7.78
2023-04-14T06:51:40.869Z,7.83
2023-04-14T06:54:12.955Z,7.82
2023-04-14T06:56:45.030Z,7.78
2023-04-14T06:59:17.184Z,7.83
2023-04-14T07:35:15.197Z,9.92
2023-04-14T09:01:44.227Z,23.72
2023-04-14T09:04:24.029Z,23.99
2023-04-14T09:07:01.746Z,23.64
2023-04-14T09:09:38.740Z,24.42
2023-04-14T09:12:15.405Z,25.41
2023-04-14T09:14:54.888Z,26.31
2023-04-14T09:17:58.343Z,27.17
2023-04-14T09:20:36.485Z,24.92
2023-04-14T09:23:38.459Z,24.32
2023-04-14T13:56:38.151Z,21.24
2023-04-14T13:59:23.299Z,21.29
2023-04-14T14:02:08.101Z,20.72
2023-04-14T14:04:53.505Z,19.81
2023-04-14T14:11:26.361Z,18.81
2023-04-14T15:30:29.613Z,19.05
2023-04-14T15:35:57.295Z,18.43
2023-04-14T15:38:33.761Z,18.21
2023-04-14T15:41:09.823Z,17.65
2023-04-14T15:44:12.677Z,17.32
2023-04-14T15:46:44.952Z,17.25
2023-04-14T15:49:20.815Z,17.25
2023-04-14T15:51:56.263Z,17.23
2023-04-14T15:54:31.967Z,17.18
2023-04-14T15:57:50.889Z,17.03
2023-04-14T16:00:44.314Z,16.85
2023-04-14T16:07:12.658Z,16.54
2023-04-14T16:09:54.762Z,16.15
2023-04-14T16:12:40.844Z,16.11
2023-04-14T16:24:17.006Z,15.51
2023-04-14T16:57:33.205Z,15.18
2023-04-14T17:00:06.876Z,15.16
2023-04-14T17:02:39.273Z,15.15
2023-04-14T17:05:13.371Z,15.06
2023-04-14T17:07:45.583Z,15.06
2023-04-14T17:10:17.694Z,15.06
2023-04-14T17:12:49.777Z,15.03
2023-04-14T17:15:21.894Z,15.02
2023-04-14T17:17:54.063Z,14.97
2023-04-14T17:20:26.620Z,14.94
2023-04-14T17:23:01.323Z,14.91
2023-04-14T17:25:37.481Z,14.86
2023-04-14T17:28:09.771Z,14.78
2023-04-14T17:30:42.348Z,14.74
2023-04-14T17:33:16.355Z,14.74
2023-04-14T17:35:48.651Z,14.71
2023-04-14T17:38:21.283Z,14.76
2023-04-14T17:40:54.819Z,14.69
2023-04-14T17:43:27.551Z,14.56
2023-04-14T17:45:59.744Z,14.58
2023-04-14T17:48:33.499Z,14.55
2023-04-14T17:51:06.425Z,14.49
2023-04-14T17:53:39.221Z,14.51
2023-04-14T17:56:13.132Z,14.45
2023-04-14T17:58:47.064Z,14.35
2023-04-14T18:01:19.790Z,14.32
2023-04-14T18:03:52.023Z,14.28
2023-04-14T18:06:24.442Z,14.24
2023-04-14T18:08:56.498Z,14.16
2023-04-14T18:11:28.805Z,14.14
2023-04-14T18:14:01.193Z,14.11
2023-04-14T18:16:33.630Z,14.05
2023-04-14T18:19:06.212Z,14.05
2023-04-14T18:21:38.503Z,14.01
2023-04-14T18:26:47.836Z,13.77
2023-04-14T18:29:20.062Z,13.73
2023-04-14T18:31:52.405Z,13.78
2023-04-14T18:34:24.555Z,13.75
2023-04-14T18:36:56.728Z,13.71
2023-04-14T18:39:33.715Z,13.65
2023-04-14T18:42:05.793Z,13.63
2023-04-14T18:44:37.898Z,13.64
2023-04-14T18:47:10.504Z,13.61
2023-04-14T18:49:42.548Z,13.60
2023-04-14T18:52:14.837Z,13.63
2023-04-14T18:54:46.854Z,13.63
2023-04-14T18:57:18.938Z,13.62
2023-04-14T18:59:51.083Z,13.57
2023-04-14T19:02:23.388Z,13.42
2023-04-14T19:04:56.330Z,13.42
2023-04-14T19:07:28.504Z,13.27
2023-04-14T19:10:02.395Z,13.22
2023-04-14T19:12:34.515Z,13.12
2023-04-14T19:15:08.033Z,13.03
2023-04-14T19:17:40.496Z,12.97
2023-04-14T19:20:13.336Z,12.86
2023-04-14T19:22:45.459Z,12.78
2023-04-14T19:25:17.649Z,12.78
2023-04-14T19:27:49.772Z,12.73
2023-04-14T19:30:22.068Z,12.65
2023-04-14T19:32:54.729Z,12.67
2023-04-14T19:35:27.855Z,12.63
2023-04-14T19:37:59.930Z,12.60
2023-04-14T19:40:32.150Z,12.51
2023-04-14T19:43:04.750Z,12.47
2023-04-14T19:45:37.464Z,12.45
2023-04-14T19:48:22.070Z,12.37
2023-04-14T19:50:55.715Z,12.27
2023-04-14T19:53:29.147Z,12.25
2023-04-14T19:56:02.228Z,12.23
2023-04-14T19:58:34.388Z,12.20
2023-04-14T20:01:06.496Z,12.15
2023-04-14T20:03:38.703Z,12.10
2023-04-14T20:06:31.060Z,12.08
2023-04-14T20:09:04.393Z,12.07
2023-04-14T20:11:37.323Z,12.04
2023-04-14T20:14:09.557Z,12.00
2023-04-14T20:16:43.052Z,11.96
2023-04-14T20:19:15.360Z,11.94
2023-04-14T20:21:48.565Z,11.89
2023-04-14T20:24:20.723Z,11.89
2023-04-14T20:26:53.369Z,11.86
2023-04-14T20:29:25.596Z,11.73
2023-04-14T20:31:57.709Z,11.71
2023-04-14T20:34:29.792Z,11.71
2023-04-14T20:37:02.842Z,11.73
2023-04-14T20:39:34.958Z,11.69
2023-04-14T20:42:07.564Z,11.63
2023-04-14T20:44:41.192Z,11.62
2023-04-14T20:47:24.077Z,11.60
2023-04-14T20:49:57.499Z,11.56
2023-04-14T20:52:29.631Z,11.51
2023-04-14T20:55:05.048Z,11.46
2023-04-14T20:57:42.331Z,11.44
2023-04-14T21:00:16.924Z,11.41
2023-04-14T21:02:51.925Z,11.37
2023-04-14T21:05:25.595Z,11.35
2023-04-14T21:07:57.828Z,11.32
2023-04-14T21:10:30.030Z,11.27
2023-04-14T21:15:42.774Z,11.24
2023-04-14T21:15:56.462Z,11.22
2023-04-14T21:18:28.939Z,11.21
2023-04-14T21:21:01.699Z,11.16
2023-04-14T21:23:35.860Z,11.08
2023-04-14T21:26:08.261Z,11.05
2023-04-14T21:28:42.063Z,11.02
2023-04-14T21:31:14.203Z,10.98
2023-04-14T21:33:48.550Z,10.96
2023-04-14T21:36:20.809Z,10.93
2023-04-14T21:38:53.223Z,10.91
2023-04-14T21:41:25.480Z,10.86
2023-04-14T21:43:57.534Z,10.80
2023-04-14T21:46:29.891Z,10.79
2023-04-14T21:49:02.208Z,10.74
2023-04-14T21:51:34.847Z,10.72
2023-04-14T21:54:07.621Z,10.67
2023-04-14T21:56:40.596Z,10.67
2023-04-14T21:59:12.862Z,10.67
2023-04-14T22:01:45.265Z,10.62
2023-04-14T22:04:28.866Z,10.61
2023-04-14T22:07:07.744Z,10.54
2023-04-14T22:09:41.650Z,10.52
2023-04-14T22:12:16.015Z,10.50
2023-04-14T22:14:48.155Z,10.47
2023-04-14T22:17:20.369Z,10.47
2023-04-14T22:19:52.795Z,10.43
2023-04-14T22:22:25.580Z,10.43
2023-04-14T22:24:57.812Z,10.38
2023-04-14T22:27:29.972Z,10.32
2023-04-14T22:30:03.041Z,10.30
2023-04-14T22:32:35.176Z,10.27
2023-04-14T22:35:07.744Z,10.29
2023-04-14T22:37:40.078Z,10.27
2023-04-14T22:40:12.307Z,10.24
2023-04-14T22:42:44.589Z,10.22
2023-04-14T22:45:17.383Z,10.20
2023-04-14T22:47:49.763Z,10.18
2023-04-14T22:50:22.745Z,10.17
2023-04-14T22:52:54.808Z,10.15
2023-04-14T22:55:27.454Z,10.11
2023-04-14T22:57:59.682Z,10.08
2023-04-14T23:00:31.809Z,10.06
2023-04-14T23:03:04.093Z,10.07
2023-04-14T23:05:36.231Z,10.06
2023-04-14T23:08:09.170Z,10.00
2023-04-14T23:10:41.437Z,9.96
2023-04-14T23:13:13.556Z,9.94
2023-04-14T23:15:46.845Z,9.90
2023-04-14T23:18:27.505Z,9.86
2023-04-14T23:20:59.619Z,9.81
2023-04-14T23:23:31.769Z,9.77
2023-04-14T23:26:04.116Z,9.75
2023-04-14T23:28:36.321Z,9.70
2023-04-14T23:31:08.481Z,9.65
2023-04-14T23:33:40.913Z,9.63
2023-04-14T23:36:13.703Z,9.57
2023-04-14T23:38:46.119Z,9.62
2023-04-14T23:41:19.036Z,9.61
2023-04-14T23:43:51.420Z,9.62
2023-04-14T23:46:23.619Z,9.63
2023-04-14T23:48:56.724Z,9.64
2023-04-14T23:51:29.307Z,9.65
2023-04-14T23:54:02.769Z,9.65
2023-04-14T23:56:35.057Z,9.65
2023-04-14T23:59:07.425Z,9.68
